Time;durP1;ratioP1;P1;durP2;ratioP2;P2;SDS_P1;SDS_P2;PMS_P1;PMS_P2;Temp;Humidity;BMP_temperature;BMP_pressure;BME280_temperature;BME280_humidity;BME280_pressure;Samples;Min_cycle;Max_cycle;Signal;HPM_P1;HPM_P2
2022/03/20 00:00:09;;;;;;;5.32;2.97;;;5.70;95.40;;;;;;4234697;28;20051;-90
2022/03/20 00:02:10;;;;;;;6.95;3.15;;;5.60;95.30;;;;;;4236002;27;20746;-89
2022/03/20 00:04:12;;;;;;;7.18;2.97;;;5.60;95.70;;;;;;4220739;28;20119;-90
2022/03/20 00:06:15;;;;;;;7.38;3.88;;;4.90;95.50;;;;;;4249375;27;20046;-89
2022/03/20 00:08:16;;;;;;;7.38;3.45;;;6.10;95.90;;;;;;4217677;28;20184;-90
2022/03/20 00:10:20;;;;;;;6.75;3.28;;;6.70;95.90;;;;;;4245943;27;20036;-89
2022/03/20 00:12:21;;;;;;;9.57;3.38;;;6.30;95.80;;;;;;4216866;28;20054;-89
2022/03/20 00:14:23;;;;;;;5.57;3.33;;;6.00;96.30;;;;;;4233875;27;20547;-89
2022/03/20 00:16:29;;;;;;;5.90;3.17;;;6.30;96.00;;;;;;4234419;28;20516;-89
2022/03/20 00:18:31;;;;;;;9.52;3.65;;;6.70;96.30;;;;;;4237191;27;20039;-89
2022/03/20 00:20:35;;;;;;;7.15;3.38;;;5.50;95.90;;;;;;4233952;28;20066;-88
2022/03/20 00:22:37;;;;;;;5.32;2.95;;;6.80;96.30;;;;;;4229609;28;20048;-89
2022/03/20 00:24:41;;;;;;;8.57;3.40;;;6.30;96.10;;;;;;4205214;28;20024;-89
2022/03/20 00:26:43;;;;;;;5.53;3.08;;;5.40;96.00;;;;;;4221851;28;20503;-89
2022/03/20 00:28:44;;;;;;;6.88;3.53;;;5.40;96.30;;;;;;4204359;28;20047;-90
2022/03/20 00:30:47;;;;;;;6.47;3.22;;;5.30;96.40;;;;;;4213338;28;20496;-89
2022/03/20 00:32:48;;;;;;;8.25;3.60;;;6.10;96.60;;;;;;4218985;28;20036;-88
2022/03/20 00:34:49;;;;;;;7.43;3.00;;;4.40;95.90;;;;;;4219801;28;20050;-88
2022/03/20 00:36:49;;;;;;;6.80;3.22;;;5.80;96.70;;;;;;4203445;28;20044;-88
2022/03/20 00:38:52;;;;;;;4.82;2.90;;;5.70;96.70;;;;;;4219777;28;20044;-88
2022/03/20 00:40:53;;;;;;;6.25;3.83;;;6.20;96.90;;;;;;4215237;28;20040;-89
2022/03/20 00:42:54;;;;;;;6.68;3.58;;;6.30;96.80;;;;;;4217893;28;20118;-89
2022/03/20 00:44:56;;;;;;;10.55;3.53;;;5.70;96.80;;;;;;4219490;28;20031;-89
2022/03/20 00:46:57;;;;;;;7.82;3.88;;;5.10;96.50;;;;;;4199483;28;20048;-88
2022/03/20 00:48:57;;;;;;;7.93;3.28;;;5.30;96.50;;;;;;4229307;28;20395;-88
2022/03/20 00:51:03;;;;;;;8.30;4.13;;;6.10;97.10;;;;;;4210747;28;20052;-89
2022/03/20 00:53:04;;;;;;;4.93;3.28;;;5.00;96.70;;;;;;4216793;28;20048;-89
2022/03/20 00:55:07;;;;;;;6.93;3.80;;;5.80;96.90;;;;;;4215545;28;20086;-89
2022/03/20 00:57:08;;;;;;;7.13;3.45;;;5.00;96.90;;;;;;4199369;28;20083;-88
2022/03/20 00:59:09;;;;;;;8.60;3.35;;;5.70;97.30;;;;;;4221287;28;20059;-89
2022/03/20 01:01:16;;;;;;;7.63;3.50;;;5.00;97.10;;;;;;4222184;28;20048;-89
2022/03/20 01:03:17;;;;;;;7.63;3.45;;;5.00;97.60;;;;;;4222716;28;20040;-90
2022/03/20 01:05:18;;;;;;;9.50;4.15;;;5.50;97.30;;;;;;4221997;28;20411;-90
2022/03/20 01:07:20;;;;;;;10.55;3.75;;;4.90;97.50;;;;;;4230780;28;20083;-89
2022/03/20 01:09:22;;;;;;;10.25;3.78;;;5.10;97.70;;;;;;4210214;28;20479;-90
2022/03/20 01:11:24;;;;;;;9.57;4.25;;;4.80;97.60;;;;;;4218447;28;20048;-88
2022/03/20 01:13:25;;;;;;;11.32;3.88;;;4.80;97.90;;;;;;4219042;28;20059;-89
2022/03/20 01:15:26;;;;;;;8.93;4.20;;;4.80;98.00;;;;;;4221209;28;20042;-89
2022/03/20 01:17:28;;;;;;;48.00;5.22;;;5.40;98.00;;;;;;4220548;28;20514;-89
2022/03/20 01:19:30;;;;;;;6.70;3.60;;;4.80;97.90;;;;;;4209256;28;20055;-89
2022/03/20 01:21:33;;;;;;;10.23;4.10;;;4.80;97.80;;;;;;4228543;28;20040;-89
2022/03/20 01:23:34;;;;;;;9.18;3.63;;;4.70;97.80;;;;;;4251333;28;20061;-88
2022/03/20 01:25:35;;;;;;;8.07;3.88;;;4.80;98.10;;;;;;4233782;28;20032;-88
2022/03/20 01:27:37;;;;;;;11.60;3.75;;;5.80;98.50;;;;;;4234101;28;20044;-90
2022/03/20 01:29:38;;;;;;;6.78;3.55;;;4.70;98.10;;;;;;4222583;28;20040;-89
2022/03/20 01:31:40;;;;;;;9.98;4.22;;;4.70;97.80;;;;;;4237640;28;20395;-90
2022/03/20 01:33:44;;;;;;;9.43;3.70;;;5.50;98.10;;;;;;4220257;28;20047;-89
2022/03/20 01:35:45;;;;;;;10.77;4.47;;;5.80;98.40;;;;;;4216731;28;20067;-90
2022/03/20 01:37:47;;;;;;;11.27;4.53;;;4.70;97.90;;;;;;4222796;28;20059;-89
2022/03/20 01:39:49;;;;;;;11.40;5.43;;;4.60;97.90;;;;;;4236512;28;20509;-89
2022/03/20 01:41:50;;;;;;;6.97;3.83;;;4.60;97.90;;;;;;4231532;28;20039;-89
2022/03/20 01:43:53;;;;;;;14.70;5.30;;;4.60;97.90;;;;;;4245424;27;20051;-90
2022/03/20 01:45:55;;;;;;;10.98;4.35;;;4.30;98.20;;;;;;4220814;28;20107;-89
2022/03/20 01:47:57;;;;;;;8.45;4.72;;;4.50;98.20;;;;;;4219084;28;20040;-89
2022/03/20 01:49:59;;;;;;;10.85;4.85;;;4.50;98.20;;;;;;4242847;27;20059;-90
2022/03/20 01:52:24;;;;;;;8.55;4.15;;;5.20;98.90;;;;;;4248581;27;20048;-89
2022/03/20 01:54:24;;;;;;;6.97;4.22;;;4.40;98.40;;;;;;4242983;27;20050;-89
2022/03/20 01:56:25;;;;;;;14.35;4.55;;;4.40;98.50;;;;;;4240805;27;20111;-89
2022/03/20 01:58:26;;;;;;;8.27;4.05;;;4.40;98.40;;;;;;4238291;27;20040;-89
2022/03/20 02:00:29;;;;;;;7.85;4.40;;;4.40;98.50;;;;;;4225057;28;20035;-89
2022/03/20 02:02:30;;;;;;;9.00;4.40;;;4.40;98.30;;;;;;4245001;27;20443;-89
2022/03/20 02:04:35;;;;;;;8.77;4.78;;;4.40;98.70;;;;;;4245544;27;20194;-89
2022/03/20 02:06:37;;;;;;;12.50;4.25;;;4.30;98.60;;;;;;4230365;28;20178;-90
2022/03/20 02:08:40;;;;;;;14.48;4.95;;;3.90;98.50;;;;;;4219339;28;20044;-89
2022/03/20 02:10:43;;;;;;;13.32;6.05;;;4.30;98.60;;;;;;4244799;27;20035;-89
2022/03/20 02:12:45;;;;;;;13.27;5.03;;;5.20;99.00;;;;;;4231107;28;20032;-89
2022/03/20 02:14:46;;;;;;;8.98;4.53;;;4.20;98.80;;;;;;4249512;27;20039;-89
2022/03/20 02:16:47;;;;;;;9.73;5.43;;;4.50;98.70;;;;;;4231157;28;20431;-89
2022/03/20 02:18:50;;;;;;;14.38;5.65;;;5.10;98.90;;;;;;4243108;27;20177;-89
2022/03/20 02:20:51;;;;;;;10.07;5.45;;;5.30;99.00;;;;;;4255835;27;20151;-89
2022/03/20 02:22:56;;;;;;;7.88;4.38;;;4.20;98.80;;;;;;4243887;27;20070;-89
2022/03/20 02:25:04;;;;;;;9.50;4.88;;;3.80;99.00;;;;;;4218901;28;20044;-89
2022/03/20 02:27:19;;;;;;;12.68;5.15;;;4.90;99.20;;;;;;4236074;27;20051;-89
2022/03/20 02:29:21;;;;;;;8.90;4.78;;;4.00;99.10;;;;;;4248609;27;20108;-89
2022/03/20 02:31:23;;;;;;;12.57;5.28;;;4.80;99.50;;;;;;4218233;28;20084;-89
2022/03/20 02:33:27;;;;;;;12.95;6.15;;;4.60;99.30;;;;;;4228629;28;20090;-89
2022/03/20 02:35:31;;;;;;;12.48;6.22;;;4.30;99.30;;;;;;4235202;27;20447;-90
2022/03/20 02:37:34;;;;;;;13.75;5.38;;;5.20;99.40;;;;;;4218713;28;20040;-89
2022/03/20 02:39:36;;;;;;;12.20;5.65;;;4.40;99.50;;;;;;4235246;27;20442;-89
2022/03/20 02:41:38;;;;;;;11.70;5.68;;;3.80;99.10;;;;;;4229399;28;20110;-89
2022/03/20 02:43:47;;;;;;;13.88;5.65;;;4.70;99.40;;;;;;4233680;27;20044;-90
2022/03/20 02:45:50;;;;;;;;;;;3.80;99.30;;;;;;4221090;28;20048;-89
2022/03/20 02:47:52;;;;;;;14.65;7.70;;;3.80;99.90;;;;;;4230956;28;19927;-89
2022/03/20 02:50:11;;;;;;;9.32;5.57;;;3.80;99.30;;;;;;4235749;27;20101;-90
2022/03/20 02:52:13;;;;;;;10.73;5.72;;;3.70;98.90;;;;;;4220568;28;20067;-89
2022/03/20 02:54:15;;;;;;;13.45;6.15;;;5.00;99.60;;;;;;4236137;27;20050;-90
2022/03/20 02:56:15;;;;;;;11.88;5.85;;;3.70;99.20;;;;;;4252802;27;20062;-90
2022/03/20 02:58:18;;;;;;;19.33;6.13;;;3.70;99.40;;;;;;4220064;28;20044;-90
2022/03/20 03:00:25;;;;;;;13.07;6.53;;;3.60;99.30;;;;;;4218278;28;20047;-90
2022/03/20 03:02:30;;;;;;;13.27;6.30;;;4.60;99.40;;;;;;4222668;28;20440;-90
2022/03/20 03:04:30;;;;;;;13.55;6.72;;;3.60;99.30;;;;;;4228881;28;20048;-89
2022/03/20 03:06:31;;;;;;;14.38;6.25;;;3.60;99.30;;;;;;4235659;27;20058;-90
2022/03/20 03:11:01;;;;;;;14.98;7.80;;;3.70;99.20;;;;;;4257998;27;20036;-89
2022/03/20 03:13:02;;;;;;;12.30;6.60;;;3.70;99.40;;;;;;4258169;27;20559;-89
2022/03/20 03:15:19;;;;;;;13.13;6.88;;;5.10;99.70;;;;;;4225293;28;20105;-89
2022/03/20 03:17:27;;;;;;;14.50;7.65;;;3.60;99.10;;;;;;4242955;27;20042;-90
2022/03/20 03:19:29;;;;;;;13.70;6.72;;;5.00;99.40;;;;;;4223536;28;20484;-89
2022/03/20 03:21:30;;;;;;;16.95;7.88;;;3.90;99.40;;;;;;4236627;27;20043;-90
2022/03/20 03:23:35;;;;;;;16.10;7.35;;;2.60;99.00;;;;;;4224302;28;20466;-89
2022/03/20 03:25:40;;;;;;;17.38;7.10;;;4.00;99.10;;;;;;4244942;27;20468;-89
2022/03/20 03:27:42;;;;;;;15.95;6.28;;;3.40;98.90;;;;;;4241117;27;20119;-90
2022/03/20 03:29:43;;;;;;;16.92;7.30;;;4.40;99.40;;;;;;4254665;27;20035;-88
2022/03/20 03:31:45;;;;;;;15.90;7.40;;;4.60;99.20;;;;;;4247376;27;20541;-89
2022/03/20 03:36:07;;;;;;;16.05;7.88;;;4.00;99.10;;;;;;4246461;27;20055;-88
2022/03/20 03:38:15;;;;;;;16.05;7.72;;;3.50;98.90;;;;;;4238824;27;20475;-90
2022/03/20 03:40:18;;;;;;;14.48;7.60;;;3.60;99.20;;;;;;4267722;27;20129;-89
2022/03/20 03:42:21;;;;;;;14.57;6.72;;;3.50;99.20;;;;;;4249872;27;20047;-90
2022/03/20 03:44:22;;;;;;;13.98;7.18;;;3.50;98.80;;;;;;4248167;27;20289;-89
2022/03/20 03:46:22;;;;;;;14.88;6.88;;;4.10;98.90;;;;;;4218558;28;20048;-89
2022/03/20 03:48:25;;;;;;;18.83;7.40;;;2.90;98.60;;;;;;4235468;28;20112;-89
2022/03/20 03:50:27;;;;;;;17.08;7.18;;;3.40;98.60;;;;;;4230009;28;20107;-88
2022/03/20 03:52:29;;;;;;;16.67;8.13;;;4.30;98.90;;;;;;4234765;27;20122;-89
2022/03/20 03:54:30;;;;;;;11.02;6.63;;;3.20;98.60;;;;;;4246678;27;20116;-89
2022/03/20 03:56:31;;;;;;;15.32;6.88;;;3.30;98.70;;;;;;4233058;28;20043;-89
2022/03/20 03:58:33;;;;;;;13.55;6.75;;;3.40;98.80;;;;;;4249733;27;20051;-89
2022/03/20 04:00:35;;;;;;;13.40;7.22;;;3.40;98.80;;;;;;4217349;28;20051;-90
2022/03/20 04:02:37;;;;;;;11.73;6.45;;;4.80;99.20;;;;;;4235280;27;20047;-89
2022/03/20 04:04:42;;;;;;;25.08;8.93;;;3.70;99.00;;;;;;4234142;27;20100;-88
2022/03/20 04:06:44;;;;;;;13.07;7.53;;;4.40;99.30;;;;;;4232646;28;20090;-89
2022/03/20 04:08:45;;;;;;;17.23;7.82;;;4.60;99.00;;;;;;4220501;28;20104;-90
2022/03/20 04:10:47;;;;;;;19.42;7.55;;;3.30;98.60;;;;;;4218780;28;20082;-89
2022/03/20 04:12:50;;;;;;;17.48;8.18;;;4.50;99.00;;;;;;4237644;27;20481;-89
2022/03/20 04:14:50;;;;;;;14.02;7.55;;;3.00;98.60;;;;;;4220101;28;20052;-89
2022/03/20 04:16:54;;;;;;;12.85;7.57;;;3.60;98.50;;;;;;4249361;27;20054;-88
2022/03/20 04:18:56;;;;;;;15.07;7.85;;;4.10;98.70;;;;;;4256369;27;20039;-89
2022/03/20 04:20:58;;;;;;;13.68;6.93;;;3.20;98.70;;;;;;4247898;27;20138;-89
2022/03/20 04:25:20;;;;;;;18.30;8.38;;;3.80;98.40;;;;;;4234267;28;20088;-89
2022/03/20 04:27:21;;;;;;;16.90;7.72;;;3.20;98.60;;;;;;4220411;28;20457;-89
2022/03/20 04:29:22;;;;;;;15.00;7.28;;;4.00;98.60;;;;;;4238942;28;20066;-90
2022/03/20 04:31:23;;;;;;;15.82;7.75;;;3.60;98.70;;;;;;4245905;28;20061;-89
2022/03/20 04:33:25;;;;;;;16.25;8.52;;;3.20;98.40;;;;;;4246664;28;20082;-89
2022/03/20 04:35:26;;;;;;;15.63;7.47;;;4.60;98.90;;;;;;4234231;28;20505;-89
2022/03/20 04:37:27;;;;;;;14.48;7.78;;;3.40;98.50;;;;;;4219872;28;20083;-89
2022/03/20 04:39:28;;;;;;;18.73;8.88;;;3.40;98.40;;;;;;4222245;28;20074;-89
2022/03/20 04:41:30;;;;;;;15.05;7.85;;;3.10;98.40;;;;;;4246430;28;20054;-88
2022/03/20 04:43:31;;;;;;;16.52;8.05;;;3.00;98.60;;;;;;4230184;28;20048;-89
2022/03/20 04:45:33;;;;;;;14.52;7.38;;;3.00;98.20;;;;;;4239223;28;20039;-88
2022/03/20 04:59:24;;;;;;;17.63;8.02;;;2.90;98.20;;;;;;4247590;28;20047;-89
2022/03/20 05:01:24;;;;;;;14.60;7.68;;;4.40;98.90;;;;;;4248289;28;20047;-89
2022/03/20 05:03:27;;;;;;;16.83;8.93;;;4.20;98.90;;;;;;4229150;28;20055;-90
2022/03/20 05:05:29;;;;;;;18.77;8.30;;;2.80;98.20;;;;;;4233811;28;20136;-90
2022/03/20 05:07:32;;;;;;;17.80;9.82;;;3.20;98.80;;;;;;4217037;28;20044;-90
2022/03/20 05:14:13;;;;;;;19.23;8.75;;;2.80;98.30;;;;;;4258664;27;20047;-89
2022/03/20 05:16:15;;;;;;;18.77;8.82;;;2.70;98.40;;;;;;4244954;28;20118;-90
2022/03/20 05:18:16;;;;;;;15.15;8.70;;;2.80;98.60;;;;;;4236396;28;20079;-89
2022/03/20 05:20:17;;;;;;;20.98;9.32;;;3.90;98.70;;;;;;4230171;28;20040;-89
2022/03/20 05:22:18;;;;;;;21.02;9.30;;;2.70;98.50;;;;;;4218698;28;20085;-88
2022/03/20 05:24:19;;;;;;;21.33;9.50;;;2.70;98.50;;;;;;4222345;28;20117;-88
2022/03/20 05:26:20;;;;;;;16.98;8.55;;;4.00;98.70;;;;;;4258314;27;20443;-89
2022/03/20 05:28:21;;;;;;;20.25;9.55;;;3.10;98.40;;;;;;4231639;28;20040;-89
2022/03/20 05:30:22;;;;;;;16.42;8.65;;;2.70;98.20;;;;;;4240773;27;20044;-89
2022/03/20 05:32:23;;;;;;;18.90;9.35;;;3.20;98.40;;;;;;4243355;27;20049;-89
2022/03/20 05:34:25;;;;;;;19.10;8.93;;;2.60;98.80;;;;;;4238245;27;20091;-89
2022/03/20 05:36:29;;;;;;;19.25;8.63;;;3.90;98.70;;;;;;4237367;28;20051;-88
2022/03/20 05:38:31;;;;;;;19.05;8.70;;;2.60;98.60;;;;;;4243618;27;20130;-89
2022/03/20 05:40:33;;;;;;;19.60;9.25;;;3.20;98.70;;;;;;4241169;27;20047;-90
2022/03/20 05:42:34;;;;;;;16.90;9.00;;;4.10;99.10;;;;;;4249556;27;20480;-89
2022/03/20 05:44:35;;;;;;;17.58;9.65;;;3.30;98.40;;;;;;4244468;27;20070;-89
2022/03/20 05:46:38;;;;;;;20.80;8.55;;;3.80;98.70;;;;;;4232717;28;20052;-89
2022/03/20 05:48:39;;;;;;;20.35;9.48;;;2.70;98.20;;;;;;4223239;28;20044;-89
2022/03/20 05:50:39;;;;;;;17.33;9.15;;;4.00;98.80;;;;;;4262467;27;20448;-89
2022/03/20 05:52:41;;;;;;;22.05;9.43;;;2.70;98.40;;;;;;4244830;27;20403;-88
2022/03/20 05:54:42;;;;;;;19.35;9.57;;;3.30;98.40;;;;;;4244292;27;20039;-89
2022/03/20 05:59:04;;;;;;;18.50;9.52;;;2.20;97.90;;;;;;4240788;27;20101;-89
2022/03/20 06:01:07;;;;;;;18.80;9.00;;;3.60;98.70;;;;;;4231434;28;20074;-89
2022/03/20 06:03:09;;;;;;;25.92;10.32;;;3.90;98.40;;;;;;4261184;27;20071;-90
2022/03/20 06:05:13;;;;;;;21.45;8.70;;;3.70;98.30;;;;;;4240419;27;20059;-88
2022/03/20 06:07:14;;;;;;;18.77;9.70;;;4.00;98.60;;;;;;4248246;27;20058;-89
2022/03/20 06:09:16;;;;;;;20.55;10.13;;;3.70;98.20;;;;;;4231035;28;20412;-88
2022/03/20 06:11:17;;;;;;;20.75;9.82;;;2.70;98.10;;;;;;4240797;27;20050;-89
2022/03/20 06:13:18;;;;;;;17.23;9.20;;;4.00;98.40;;;;;;4240636;27;20043;-89
2022/03/20 06:15:19;;;;;;;17.75;9.48;;;3.40;98.10;;;;;;4240317;27;20035;-89
2022/03/20 06:17:20;;;;;;;23.00;10.63;;;2.70;97.90;;;;;;4248873;27;20047;-88
2022/03/20 06:19:21;;;;;;;23.00;10.68;;;2.80;97.80;;;;;;4227664;28;20096;-89
2022/03/20 06:21:28;;;;;;;23.52;9.95;;;2.90;97.90;;;;;;4242471;27;20074;-88
2022/03/20 06:23:31;;;;;;;16.90;9.15;;;2.80;97.80;;;;;;4223318;28;20037;-89
2022/03/20 06:25:33;;;;;;;18.42;9.80;;;2.90;97.80;;;;;;4257846;27;20031;-89
2022/03/20 06:27:48;;;;;;;20.30;9.25;;;3.40;97.90;;;;;;4259335;27;20100;-89
2022/03/20 06:29:49;;;;;;;21.17;10.45;;;2.80;97.70;;;;;;4230185;28;20051;-88
2022/03/20 06:31:52;;;;;;;19.60;10.15;;;3.70;98.10;;;;;;4230409;28;20097;-89
2022/03/20 06:33:54;;;;;;;20.65;9.75;;;3.40;97.90;;;;;;4246956;27;20513;-89
2022/03/20 06:35:56;;;;;;;18.05;8.73;;;4.30;98.10;;;;;;4246430;27;20073;-88
2022/03/20 06:37:57;;;;;;;19.60;10.13;;;3.10;97.70;;;;;;4230145;28;20071;-89
2022/03/20 06:39:58;;;;;;;18.05;10.90;;;4.40;98.10;;;;;;4268817;27;20500;-89
2022/03/20 06:42:00;;;;;;;19.63;8.98;;;4.10;97.90;;;;;;4232664;28;20126;-89
2022/03/20 06:44:04;;;;;;;19.60;10.55;;;3.60;97.50;;;;;;4232525;28;20075;-88
2022/03/20 06:46:06;;;;;;;17.95;10.32;;;3.00;97.20;;;;;;4233112;28;20047;-88
2022/03/20 06:48:07;;;;;;;19.20;9.18;;;3.50;97.20;;;;;;4251926;27;20039;-89
2022/03/20 06:50:10;;;;;;;20.58;9.35;;;3.80;97.10;;;;;;4251253;27;20068;-89
2022/03/20 06:52:11;;;;;;;20.13;9.43;;;3.10;96.80;;;;;;4262343;27;20050;-88
2022/03/20 06:54:13;;;;;;;20.02;9.60;;;3.60;97.00;;;;;;4228795;28;20048;-89
2022/03/20 06:56:16;;;;;;;16.85;9.50;;;4.30;97.10;;;;;;4233286;28;20098;-88
2022/03/20 06:58:20;;;;;;;18.63;8.80;;;3.30;96.70;;;;;;4245645;27;20058;-88
2022/03/20 07:00:22;;;;;;;17.92;9.52;;;3.60;96.50;;;;;;4237303;27;20122;-89
2022/03/20 07:02:24;;;;;;;26.33;9.32;;;4.80;96.70;;;;;;4250699;27;20081;-89
2022/03/20 07:04:25;;;;;;;18.55;9.35;;;4.80;96.60;;;;;;4236978;27;20047;-88
2022/03/20 07:06:27;;;;;;;19.75;9.15;;;4.70;96.40;;;;;;4228122;28;20094;-88
2022/03/20 07:08:28;;;;;;;18.58;9.38;;;2.90;95.80;;;;;;4236922;27;20041;-89
2022/03/20 07:10:30;;;;;;;20.70;10.63;;;3.70;96.20;;;;;;4231778;28;20546;-89
2022/03/20 07:12:31;;;;;;;17.48;8.88;;;3.80;95.60;;;;;;4234708;27;20058;-87
2022/03/20 07:14:32;;;;;;;22.25;10.10;;;4.80;95.70;;;;;;4233831;28;20044;-88
2022/03/20 07:16:36;;;;;;;22.95;10.88;;;3.70;95.30;;;;;;4245710;27;20565;-88
2022/03/20 07:18:37;;;;;;;20.23;9.75;;;3.80;95.10;;;;;;4229054;28;20073;-87
2022/03/20 07:20:41;;;;;;;19.55;9.40;;;5.30;95.30;;;;;;4249221;27;20062;-89
2022/03/20 07:22:43;;;;;;;20.33;10.65;;;4.40;94.80;;;;;;4248677;27;20055;-90
2022/03/20 07:24:45;;;;;;;21.05;9.05;;;5.20;94.90;;;;;;4234454;27;20043;-90
2022/03/20 07:31:26;;;;;;;16.77;9.68;;;4.30;94.00;;;;;;4234971;27;20403;-86
2022/03/20 07:33:26;;;;;;;22.23;8.80;;;5.40;94.10;;;;;;4246957;27;20035;-86
2022/03/20 07:35:29;;;;;;;16.85;9.27;;;4.40;93.70;;;;;;4234834;27;20050;-85
2022/03/20 07:37:29;;;;;;;22.10;10.18;;;4.80;93.50;;;;;;4237626;27;20050;-85
2022/03/20 07:39:30;;;;;;;19.70;10.02;;;5.20;93.60;;;;;;4246737;27;20038;-86
2022/03/20 07:41:31;;;;;;;19.25;10.38;;;4.40;93.30;;;;;;4233657;27;20096;-87
2022/03/20 07:43:33;;;;;;;16.92;9.85;;;4.70;93.20;;;;;;4243945;27;20063;-86
2022/03/20 07:45:34;;;;;;;22.63;10.65;;;5.00;92.80;;;;;;4236624;27;20510;-86
2022/03/20 07:47:36;;;;;;;20.05;9.88;;;5.50;92.10;;;;;;4228870;28;20035;-86
2022/03/20 07:49:37;;;;;;;16.25;9.52;;;5.90;91.10;;;;;;4235134;27;20037;-86
2022/03/20 07:51:38;;;;;;;18.40;9.85;;;6.90;90.50;;;;;;4234423;27;20035;-87
2022/03/20 07:53:38;;;;;;;24.02;8.75;;;6.70;88.80;;;;;;4237501;27;20046;-87
2022/03/20 07:55:39;;;;;;;18.17;9.50;;;7.10;87.40;;;;;;4236120;27;20058;-87
2022/03/20 07:57:41;;;;;;;22.58;10.55;;;7.20;85.20;;;;;;4217211;28;20054;-88
2022/03/20 07:59:44;;;;;;;17.48;10.52;;;8.30;85.30;;;;;;4237124;27;20476;-87
2022/03/20 08:01:45;;;;;;;19.50;10.30;;;6.90;83.10;;;;;;4246051;27;20475;-87
2022/03/20 08:03:46;;;;;;;20.83;11.18;;;;;;;;;;4218028;28;20044;-86
2022/03/20 08:05:47;;;;;;;21.42;10.90;;;8.90;83.00;;;;;;4234038;27;20050;-86
2022/03/20 08:07:48;;;;;;;17.70;10.10;;;9.80;81.00;;;;;;4247595;27;20441;-87
2022/03/20 08:09:48;;;;;;;21.33;9.95;;;9.40;80.10;;;;;;4227170;28;20047;-86
2022/03/20 08:11:51;;;;;;;17.00;8.50;;;;;;;;;;4237689;27;20035;-86
2022/03/20 08:13:51;;;;;;;16.38;9.90;;;9.20;78.60;;;;;;4239520;27;20117;-86
2022/03/20 08:15:53;;;;;;;20.08;9.13;;;;;;;;;;4242962;27;20039;-85
2022/03/20 08:17:55;;;;;;;16.45;9.27;;;;;;;;;;4231554;28;20557;-87
2022/03/20 08:19:56;;;;;;;18.65;9.32;;;;;;;;;;4236744;27;20058;-86
2022/03/20 08:21:59;;;;;;;21.23;9.85;;;;;;;;;;4235196;27;20043;-86
2022/03/20 08:24:02;;;;;;;22.10;10.02;;;;;;;;;;4235164;27;20055;-87
2022/03/20 08:26:03;;;;;;;17.52;9.45;;;;;;;;;;4252027;27;20494;-87
2022/03/20 08:28:05;;;;;;;18.92;9.65;;;;;;;;;;4265152;27;20046;-87
2022/03/20 08:30:11;;;;;;;22.15;10.02;;;;;;;;;;4259638;27;20473;-86
2022/03/20 08:32:12;;;;;;;19.77;9.63;;;;;;;;;;4239813;28;20069;-86
2022/03/20 08:34:17;;;;;;;19.40;10.77;;;;;;;;;;4247472;28;20086;-86
2022/03/20 08:36:18;;;;;;;18.27;9.07;;;;;;;;;;4260938;27;20136;-88
2022/03/20 08:38:19;;;;;;;18.95;9.35;;;;;;;;;;4262538;27;20050;-87
2022/03/20 08:40:21;;;;;;;20.25;11.13;;;;;;;;;;4261070;27;20042;-86
2022/03/20 08:42:22;;;;;;;19.52;10.60;;;;;;;;;;4252359;27;20031;-86
2022/03/20 08:44:26;;;;;;;20.40;9.65;;;;;;;;;;4252133;27;20031;-87
2022/03/20 08:46:27;;;;;;;18.92;10.75;;;;;;;;;;4252375;27;20111;-86
2022/03/20 08:48:28;;;;;;;21.33;11.00;;;;;;;;;;4241614;28;20079;-86
2022/03/20 08:50:29;;;;;;;16.85;9.90;;;;;;;;;;4256132;27;20490;-87
2022/03/20 08:52:30;;;;;;;23.58;10.75;;;;;;;;;;4265374;27;20129;-87
2022/03/20 08:54:31;;;;;;;19.27;10.27;;;;;;;;;;4268647;27;20398;-87
2022/03/20 08:56:33;;;;;;;19.63;11.20;;;;;;;;;;4268919;27;20498;-87
2022/03/20 08:58:34;;;;;;;20.40;10.13;;;;;;;;;;4268206;27;20505;-87
2022/03/20 09:00:35;;;;;;;20.25;10.75;;;;;;;;;;4268300;27;20398;-87
2022/03/20 09:02:36;;;;;;;17.67;10.52;;;;;;;;;;4268281;27;20390;-87
2022/03/20 09:04:37;;;;;;;17.58;10.13;;;;;;;;;;4268807;27;20039;-87
2022/03/20 09:06:43;;;;;;;19.88;10.18;;;;;;;;;;4267707;27;20050;-86
2022/03/20 09:08:44;;;;;;;19.95;11.05;;;;;;;;;;4268410;27;20066;-86
2022/03/20 09:10:45;;;;;;;20.60;11.07;;;;;;;;;;4268607;27;20046;-85
2022/03/20 09:12:46;;;;;;;19.15;11.18;;;;;;;;;;4267874;27;20167;-87
2022/03/20 09:14:48;;;;;;;19.88;10.73;;;;;;;;;;4268004;27;20099;-87
2022/03/20 09:19:10;;;;;;;20.85;10.98;;;;;;;;;;4267361;27;20146;-86
2022/03/20 09:21:11;;;;;;;20.02;11.45;;;;;;;;;;4249406;27;20063;-86
2022/03/20 09:23:13;;;;;;;21.95;11.02;;;;;;;;;;4267317;27;20042;-87
2022/03/20 09:25:14;;;;;;;19.98;10.73;;;;;;;;;;4249279;27;20046;-87
2022/03/20 09:27:15;;;;;;;19.95;10.70;;;;;;;;;;4268027;27;20087;-87
2022/03/20 09:29:17;;;;;;;18.13;11.20;;;;;;;;;;4267828;27;20039;-86
2022/03/20 09:31:19;;;;;;;20.05;11.82;;;;;;;;;;4267461;27;20046;-86
2022/03/20 09:33:21;;;;;;;27.60;13.50;;;;;;;;;;4268163;27;20046;-87
2022/03/20 09:35:22;;;;;;;20.27;11.40;;;;;;;;;;4249214;27;20081;-87
2022/03/20 09:37:23;;;;;;;19.65;11.02;;;;;;;;;;4267574;27;20039;-87
2022/03/20 09:39:26;;;;;;;21.50;11.20;;;;;;;;;;4268247;27;20042;-87
2022/03/20 09:41:30;;;;;;;22.02;11.75;;;;;;;;;;4267578;27;20051;-87
2022/03/20 09:43:31;;;;;;;19.23;11.52;;;;;;;;;;4267147;27;20110;-86
2022/03/20 09:45:33;;;;;;;20.48;11.05;;;;;;;;;;4248840;27;20114;-87
2022/03/20 09:47:35;;;;;;;21.38;11.60;;;;;;;;;;4249397;27;20126;-86
2022/03/20 09:49:38;;;;;;;21.83;12.20;;;;;;;;;;4267794;27;20418;-86
2022/03/20 09:51:39;;;;;;;22.40;12.75;;;;;;;;;;4267511;27;20053;-86
2022/03/20 09:53:41;;;;;;;21.67;12.63;;;;;;;;;;4266907;27;20070;-87
2022/03/20 09:55:43;;;;;;;20.17;12.05;;;;;;;;;;4249084;27;20043;-87
2022/03/20 09:57:45;;;;;;;21.45;11.98;;;;;;;;;;4267886;27;20057;-87
2022/03/20 09:59:48;;;;;;;22.70;13.20;;;;;;;;;;4267878;27;20503;-87
2022/03/20 10:01:49;;;;;;;21.38;12.50;;;;;;;;;;4267963;27;20158;-88
2022/03/20 10:04:06;;;;;;;22.48;12.85;;;;;;;;;;4268224;27;20038;-87
2022/03/20 10:06:17;;;;;;;23.15;12.73;;;;;;;;;;4267224;27;20047;-86
2022/03/20 10:08:20;;;;;;;22.40;12.93;;;;;;;;;;4267454;27;20053;-87
2022/03/20 10:10:22;;;;;;;21.95;12.77;;;;;;;;;;4267458;27;20443;-87
2022/03/20 10:12:33;;;;;;;23.38;12.95;;;;;;;;;;4266997;27;20102;-86
2022/03/20 10:14:34;;;;;;;20.90;11.10;;;;;;;;;;4249022;27;20518;-87
2022/03/20 10:16:36;;;;;;;22.75;13.02;;;;;;;;;;4264564;27;20450;-88
2022/03/20 10:18:39;;;;;;;22.52;11.15;;;;;;;;;;4266964;27;20484;-87
2022/03/20 10:20:42;;;;;;;23.58;12.75;;;;;;;;;;4248857;27;20065;-86
2022/03/20 10:22:44;;;;;;;19.20;11.50;;;;;;;;;;4267691;27;20111;-87
2022/03/20 10:24:49;;;;;;;21.35;12.57;;;;;;;;;;4249075;27;20059;-87
2022/03/20 10:27:03;;;;;;;21.85;12.77;;;;;;;;;;4265107;27;20046;-86
2022/03/20 10:29:04;;;;;;;21.55;12.10;;;;;;;;;;4267662;27;20143;-87
2022/03/20 10:31:09;;;;;;;22.88;12.43;;;;;;;;;;4267368;27;20043;-87
2022/03/20 10:33:14;;;;;;;22.23;13.15;;;;;;;;;;4231593;28;20043;-87
2022/03/20 10:35:17;;;;;;;20.75;12.25;;;;;;;;;;4267658;27;20046;-86
2022/03/20 10:37:19;;;;;;;22.30;13.80;;;;;;;;;;4267627;27;20460;-87
2022/03/20 10:39:22;;;;;;;22.70;13.20;;;;;;;;;;4267542;27;20065;-87
2022/03/20 10:41:25;;;;;;;21.45;12.20;;;;;;;;;;4233236;28;20048;-87
2022/03/20 10:43:26;;;;;;;20.00;12.18;;;;;;;;;;4267295;27;20038;-87
2022/03/20 10:45:28;;;;;;;21.70;13.02;;;;;;;;;;4267405;27;20151;-87
2022/03/20 10:47:30;;;;;;;21.15;13.15;;;;;;;;;;4249392;27;20184;-87
2022/03/20 10:49:32;;;;;;;21.95;12.20;;;;;;;;;;4267569;27;20250;-87
2022/03/20 10:51:40;;;;;;;22.20;13.07;;;;;;;;;;4267532;27;20034;-87
2022/03/20 10:53:54;;;;;;;25.15;13.05;;;;;;;;;;4267470;27;20538;-86
2022/03/20 10:56:05;;;;;;;21.48;12.45;;;;;;;;;;4265889;27;20043;-86
2022/03/20 10:58:18;;;;;;;21.73;13.23;;;;;;;;;;4268000;27;20065;-87
2022/03/20 11:00:21;;;;;;;19.88;12.65;;;;;;;;;;4267980;27;20042;-86
2022/03/20 11:02:23;;;;;;;24.80;13.52;;;;;;;;;;4267740;27;20042;-87
2022/03/20 11:04:24;;;;;;;22.45;13.98;;;;;;;;;;4268309;27;20035;-87
2022/03/20 11:06:25;;;;;;;22.75;13.07;;;;;;;;;;4268238;27;20467;-87
2022/03/20 11:08:26;;;;;;;25.55;13.85;;;;;;;;;;4250625;27;20109;-87
2022/03/20 11:10:27;;;;;;;24.55;13.60;;;;;;;;;;4248928;27;20555;-87
2022/03/20 11:12:33;;;;;;;23.67;14.23;;;;;;;;;;4268124;27;20157;-87
2022/03/20 11:14:36;;;;;;;24.35;14.02;;;;;;;;;;4245298;27;20046;-87
2022/03/20 11:16:39;;;;;;;23.95;13.80;;;;;;;;;;4260676;27;20053;-87
2022/03/20 11:18:41;;;;;;;23.45;13.07;;;;;;;;;;4236035;27;20127;-87
2022/03/20 11:20:45;;;;;;;28.17;13.70;;;;;;;;;;4255177;27;20055;-87
2022/03/20 11:22:48;;;;;;;25.45;14.80;;;;;;;;;;4251049;27;20062;-87
2022/03/20 11:24:51;;;;;;;24.13;13.57;;;;;;;;;;4266930;27;20495;-88
2022/03/20 11:26:53;;;;;;;22.95;13.52;;;;;;;;;;4252907;27;20043;-86
2022/03/20 11:28:58;;;;;;;21.80;12.20;;;;;;;;;;4249738;27;20436;-86
2022/03/20 11:33:59;;;;;;;23.48;14.02;;;;;;;;;;4241129;27;20044;-87
2022/03/20 11:36:02;;;;;;;21.05;12.15;;;;;;;;;;4240389;27;20406;-86